Time;durP1;ratioP1;P1;durP2;ratioP2;P2;SDS_P1;SDS_P2;PMS_P1;PMS_P2;Temp;Humidity;BMP_temperature;BMP_pressure;BME280_temperature;BME280_humidity;BME280_pressure;Samples;Min_cycle;Max_cycle;Signal;HPM_P1;HPM_P2
2023/09/14 00:02:06;;;;;;;6.73;4.30;;;13.40;99.90;;;;;;5050480;28;20214;-62
2023/09/14 00:04:35;;;;;;;5.03;4.33;;;13.30;99.90;;;;;;5054701;28;20567;-62
2023/09/14 00:07:03;;;;;;;6.57;4.97;;;13.30;99.90;;;;;;5053806;28;20212;-62
2023/09/14 00:09:32;;;;;;;10.97;4.90;;;13.30;99.90;;;;;;5056097;28;20239;-63
2023/09/14 00:12:01;;;;;;;5.40;4.60;;;13.30;99.90;;;;;;5047235;28;20201;-62
2023/09/14 00:14:29;;;;;;;6.20;4.07;;;13.30;99.90;;;;;;5034240;28;20209;-62
2023/09/14 00:16:59;;;;;;;5.10;4.30;;;13.30;99.90;;;;;;5051885;28;20297;-63
2023/09/14 00:19:27;;;;;;;5.47;4.37;;;13.20;99.90;;;;;;5050817;28;20667;-62
2023/09/14 00:21:56;;;;;;;8.43;4.30;;;13.10;99.90;;;;;;5044660;28;20589;-63
2023/09/14 00:24:24;;;;;;;6.57;4.70;;;13.20;99.90;;;;;;5052418;28;20666;-62
2023/09/14 00:26:52;;;;;;;5.20;4.47;;;13.20;99.90;;;;;;5051382;28;20205;-62
2023/09/14 00:29:21;;;;;;;4.47;4.07;;;13.20;99.90;;;;;;5049318;28;20802;-63
2023/09/14 00:31:49;;;;;;;5.10;4.63;;;13.20;99.90;;;;;;5050849;28;20225;-63
2023/09/14 00:34:19;;;;;;;5.40;4.40;;;13.10;99.90;;;;;;5048755;28;20214;-63
2023/09/14 00:36:47;;;;;;;4.80;4.30;;;13.10;99.90;;;;;;5064669;28;20218;-62
2023/09/14 00:39:15;;;;;;;5.00;4.07;;;13.10;99.90;;;;;;5055434;28;20721;-62
2023/09/14 00:41:44;;;;;;;4.70;4.27;;;13.10;99.90;;;;;;5047944;28;20200;-63
2023/09/14 00:44:11;;;;;;;4.63;4.23;;;13.00;99.90;;;;;;5053876;28;20221;-63
2023/09/14 00:46:39;;;;;;;5.70;3.83;;;13.00;99.90;;;;;;5049225;28;20226;-63
2023/09/14 00:49:08;;;;;;;4.47;3.97;;;12.90;99.90;;;;;;5051459;28;20303;-63
2023/09/14 00:51:38;;;;;;;4.57;4.00;;;13.00;99.90;;;;;;5051048;28;20306;-63
2023/09/14 00:54:06;;;;;;;6.43;4.20;;;13.00;99.90;;;;;;5050788;28;20198;-63
2023/09/14 00:56:35;;;;;;;7.73;4.40;;;13.00;99.90;;;;;;5051670;28;20654;-63
2023/09/14 00:59:05;;;;;;;9.07;4.67;;;12.90;99.90;;;;;;5051374;28;20225;-63
2023/09/14 01:01:33;;;;;;;5.53;4.37;;;12.90;99.90;;;;;;5056024;28;20949;-63
2023/09/14 01:04:02;;;;;;;8.77;4.80;;;12.90;99.90;;;;;;5050519;28;20216;-63
2023/09/14 01:06:32;;;;;;;6.67;5.03;;;12.90;99.90;;;;;;5050369;28;20266;-63
2023/09/14 01:09:05;;;;;;;4.77;4.23;;;12.90;99.90;;;;;;5052816;28;20292;-63
2023/09/14 01:11:33;;;;;;;4.70;4.27;;;12.80;99.90;;;;;;5029258;28;20965;-63
2023/09/14 01:14:10;;;;;;;5.43;4.90;;;12.80;99.90;;;;;;5030924;28;20818;-63
2023/09/14 01:16:45;;;;;;;4.67;4.27;;;12.70;99.90;;;;;;5032573;28;20712;-63
2023/09/14 01:19:33;;;;;;;8.30;4.90;;;12.70;99.90;;;;;;5031595;28;20222;-63
2023/09/14 01:22:21;;;;;;;5.53;4.90;;;12.70;99.90;;;;;;5034629;28;20221;-63
2023/09/14 01:24:58;;;;;;;5.10;4.60;;;12.70;99.90;;;;;;5027938;28;20225;-62
2023/09/14 01:27:28;;;;;;;6.17;4.67;;;12.70;99.90;;;;;;5030608;28;20559;-63
2023/09/14 01:29:58;;;;;;;6.23;4.63;;;12.70;99.90;;;;;;5031093;28;20197;-62
2023/09/14 01:32:28;;;;;;;6.67;4.50;;;12.70;99.90;;;;;;5036098;28;20596;-63
2023/09/14 01:34:56;;;;;;;5.20;4.50;;;12.80;99.90;;;;;;5034793;28;20746;-63
2023/09/14 01:37:26;;;;;;;5.90;4.80;;;12.70;99.90;;;;;;5033433;28;20295;-63
2023/09/14 01:39:54;;;;;;;5.57;4.50;;;12.60;99.90;;;;;;5038043;28;20277;-63
2023/09/14 01:42:23;;;;;;;6.63;4.27;;;12.60;99.90;;;;;;5046541;28;20220;-63
2023/09/14 01:44:53;;;;;;;6.87;4.57;;;12.50;99.90;;;;;;5025670;28;20197;-63
2023/09/14 01:47:21;;;;;;;6.20;4.73;;;12.50;99.90;;;;;;5033128;28;20223;-63
2023/09/14 01:49:50;;;;;;;5.87;5.00;;;12.60;99.90;;;;;;5036399;28;20236;-63
2023/09/14 01:52:18;;;;;;;5.77;4.30;;;12.60;99.90;;;;;;5033859;28;20715;-63
2023/09/14 01:54:46;;;;;;;4.77;4.47;;;12.50;99.90;;;;;;5031965;28;20216;-63
2023/09/14 01:57:14;;;;;;;6.67;4.63;;;12.50;99.90;;;;;;5028300;28;20198;-63
2023/09/14 01:59:43;;;;;;;6.20;4.60;;;12.50;99.90;;;;;;5028650;28;20678;-62
2023/09/14 02:02:12;;;;;;;5.07;4.67;;;12.50;99.90;;;;;;5047307;28;20208;-62
2023/09/14 02:04:41;;;;;;;5.90;4.50;;;12.40;99.90;;;;;;5053817;28;20219;-62
2023/09/14 02:07:10;;;;;;;4.73;4.33;;;12.40;99.90;;;;;;5050840;28;20224;-62
2023/09/14 02:09:38;;;;;;;5.10;4.00;;;12.40;99.90;;;;;;5053783;28;20369;-62
2023/09/14 02:12:07;;;;;;;4.30;4.00;;;12.40;99.90;;;;;;5050049;28;20266;-62
2023/09/14 02:14:36;;;;;;;5.00;4.50;;;12.40;99.90;;;;;;5057896;28;20690;-62
2023/09/14 02:17:04;;;;;;;5.50;4.93;;;12.40;99.90;;;;;;5050785;28;20216;-62
2023/09/14 02:19:34;;;;;;;5.93;4.63;;;12.30;99.90;;;;;;5050677;28;20555;-62
2023/09/14 02:22:02;;;;;;;7.63;4.63;;;12.30;99.90;;;;;;5050095;28;20221;-61
2023/09/14 02:24:31;;;;;;;8.20;4.70;;;12.40;99.90;;;;;;5055652;28;20240;-62
2023/09/14 02:27:00;;;;;;;9.63;5.33;;;12.40;99.90;;;;;;5055209;28;20212;-62
2023/09/14 02:29:30;;;;;;;5.50;4.77;;;12.30;99.90;;;;;;5027669;28;20214;-62
2023/09/14 02:31:59;;;;;;;4.93;3.83;;;12.30;99.90;;;;;;5033261;28;20213;-62
2023/09/14 02:34:27;;;;;;;6.60;4.37;;;12.20;99.90;;;;;;5033500;28;20676;-62
2023/09/14 02:36:57;;;;;;;4.97;4.40;;;12.20;99.90;;;;;;5036836;28;20216;-62
2023/09/14 02:39:25;;;;;;;5.73;4.77;;;12.20;99.90;;;;;;5029682;28;20225;-62
2023/09/14 02:41:54;;;;;;;5.20;4.70;;;12.20;99.90;;;;;;5033809;28;20600;-62
2023/09/14 02:44:22;;;;;;;5.47;4.90;;;12.20;99.90;;;;;;5035512;28;20221;-62
2023/09/14 02:46:50;;;;;;;4.87;4.47;;;12.20;99.90;;;;;;5037601;28;20228;-62
2023/09/14 02:49:19;;;;;;;5.60;4.73;;;12.10;99.90;;;;;;5034157;28;20233;-62
2023/09/14 02:51:47;;;;;;;6.20;4.33;;;12.10;99.90;;;;;;5034348;28;20213;-62
2023/09/14 02:54:17;;;;;;;5.00;4.47;;;12.20;99.90;;;;;;5035778;28;20545;-62
2023/09/14 02:56:46;;;;;;;5.10;4.60;;;12.20;99.90;;;;;;5039105;28;20197;-62
2023/09/14 02:59:16;;;;;;;5.43;4.80;;;12.20;99.90;;;;;;5036803;28;20221;-62
2023/09/14 03:01:45;;;;;;;5.33;4.80;;;12.10;99.90;;;;;;5033194;28;20221;-62
2023/09/14 03:04:14;;;;;;;4.90;4.50;;;12.20;99.90;;;;;;5032191;28;20229;-62
2023/09/14 03:06:42;;;;;;;5.63;4.23;;;12.10;99.90;;;;;;5040919;28;20228;-63
2023/09/14 03:09:11;;;;;;;5.10;4.63;;;12.10;99.90;;;;;;5036472;28;20193;-63
2023/09/14 03:11:41;;;;;;;8.00;5.20;;;12.00;99.90;;;;;;5054040;28;20204;-63
2023/09/14 03:14:10;;;;;;;7.57;4.83;;;12.00;99.90;;;;;;5052695;28;20224;-62
2023/09/14 03:16:38;;;;;;;11.77;5.03;;;12.00;99.90;;;;;;5058657;28;20224;-62
2023/09/14 03:19:07;;;;;;;6.80;4.50;;;12.00;99.90;;;;;;5060001;28;20691;-62
2023/09/14 03:21:35;;;;;;;9.53;4.87;;;12.00;99.90;;;;;;5056399;28;20806;-62
2023/09/14 03:24:04;;;;;;;6.70;4.90;;;12.00;99.90;;;;;;5057031;28;20230;-62
2023/09/14 03:26:32;;;;;;;6.57;4.87;;;11.90;99.90;;;;;;5055512;28;20193;-62
2023/09/14 03:29:02;;;;;;;4.87;4.43;;;11.90;99.90;;;;;;5060202;28;20235;-62
2023/09/14 03:31:30;;;;;;;6.60;4.40;;;11.90;99.90;;;;;;5057263;28;20225;-62
2023/09/14 03:33:59;;;;;;;4.53;4.13;;;11.90;99.90;;;;;;5054512;28;20222;-62
2023/09/14 03:36:28;;;;;;;5.23;4.73;;;11.90;99.90;;;;;;5056262;28;20741;-62
2023/09/14 03:38:58;;;;;;;5.47;4.20;;;11.90;99.90;;;;;;5058194;28;20200;-63
2023/09/14 03:41:27;;;;;;;8.43;4.67;;;11.90;99.90;;;;;;5056205;28;20219;-62
2023/09/14 03:43:55;;;;;;;5.97;4.13;;;11.80;99.90;;;;;;5054445;28;20239;-63
2023/09/14 03:46:25;;;;;;;5.40;4.60;;;11.90;99.90;;;;;;5057322;28;20248;-63
2023/09/14 03:48:53;;;;;;;12.17;4.97;;;11.90;99.90;;;;;;5054379;28;20336;-63
2023/09/14 03:51:22;;;;;;;5.10;4.57;;;11.90;99.90;;;;;;5054327;28;20189;-63
2023/09/14 03:53:50;;;;;;;4.77;4.23;;;11.80;99.90;;;;;;5053255;28;20200;-62
2023/09/14 03:56:18;;;;;;;6.40;5.03;;;11.80;99.90;;;;;;5053838;28;20231;-63
2023/09/14 03:58:47;;;;;;;6.57;4.30;;;11.70;99.90;;;;;;5050953;28;20223;-63
2023/09/14 04:01:16;;;;;;;7.27;4.80;;;11.70;99.90;;;;;;5056636;28;20216;-62
2023/09/14 04:03:46;;;;;;;8.83;4.73;;;11.70;99.90;;;;;;5049859;28;20232;-63
2023/09/14 04:06:14;;;;;;;6.47;4.57;;;11.70;99.90;;;;;;5085938;28;20204;-62
2023/09/14 04:08:43;;;;;;;9.53;4.90;;;11.70;99.90;;;;;;5056041;28;20312;-63
2023/09/14 04:11:11;;;;;;;9.00;4.70;;;11.80;99.90;;;;;;5058878;28;20614;-63
2023/09/14 04:13:40;;;;;;;5.50;4.23;;;11.80;99.90;;;;;;5050480;28;20220;-63
2023/09/14 04:16:08;;;;;;;7.13;4.93;;;11.70;99.90;;;;;;5053479;28;20254;-63
2023/09/14 04:18:38;;;;;;;7.47;5.13;;;11.70;99.90;;;;;;5054550;28;20269;-63
2023/09/14 04:21:08;;;;;;;7.63;5.60;;;11.60;99.90;;;;;;5055129;28;20258;-63
2023/09/14 04:23:36;;;;;;;6.90;6.20;;;11.60;99.90;;;;;;5054431;28;20211;-63
2023/09/14 04:26:05;;;;;;;11.60;7.17;;;11.60;99.90;;;;;;5054921;28;20621;-63
2023/09/14 04:28:33;;;;;;;8.90;6.93;;;11.70;99.90;;;;;;5051052;28;20315;-63
2023/09/14 04:31:04;;;;;;;8.63;5.67;;;11.60;99.90;;;;;;5054467;28;20295;-63
2023/09/14 04:33:33;;;;;;;11.20;5.43;;;11.60;99.90;;;;;;5049815;28;20224;-63
2023/09/14 04:36:05;;;;;;;7.07;5.30;;;11.60;99.90;;;;;;5054148;28;20200;-62
2023/09/14 04:38:34;;;;;;;8.47;5.67;;;11.60;99.90;;;;;;5056132;28;20285;-63
2023/09/14 04:41:05;;;;;;;11.03;5.60;;;11.60;99.90;;;;;;5051618;28;20224;-63
2023/09/14 04:43:33;;;;;;;8.10;5.73;;;11.60;99.90;;;;;;5054579;28;20570;-63
2023/09/14 04:46:03;;;;;;;7.47;5.90;;;11.60;99.90;;;;;;5052906;28;20220;-62
2023/09/14 04:48:32;;;;;;;6.60;5.43;;;11.60;99.90;;;;;;5053750;28;20225;-63
2023/09/14 04:51:01;;;;;;;7.97;5.70;;;11.60;99.90;;;;;;5055212;28;20224;-63
2023/09/14 04:53:30;;;;;;;7.93;5.30;;;11.50;99.90;;;;;;5057016;28;20697;-62
2023/09/14 04:56:00;;;;;;;5.17;4.73;;;11.50;99.90;;;;;;5050335;28;20226;-63
2023/09/14 04:58:28;;;;;;;9.57;5.10;;;11.50;99.90;;;;;;5057242;28;20216;-63
2023/09/14 05:00:57;;;;;;;8.67;5.10;;;11.50;99.90;;;;;;5056112;28;20242;-63
2023/09/14 05:03:25;;;;;;;5.33;4.93;;;11.50;99.90;;;;;;5048768;28;20309;-63
2023/09/14 05:05:55;;;;;;;5.97;4.70;;;11.50;99.90;;;;;;5041621;28;20299;-63
2023/09/14 05:08:24;;;;;;;7.53;4.93;;;11.40;99.90;;;;;;5054164;28;20216;-63
2023/09/14 05:10:53;;;;;;;9.97;5.63;;;11.40;99.90;;;;;;5053148;28;20232;-62
2023/09/14 05:13:23;;;;;;;5.47;4.97;;;11.30;99.90;;;;;;5048390;28;20307;-62
2023/09/14 05:15:52;;;;;;;8.03;6.10;;;11.40;99.90;;;;;;5048029;28;20702;-63
2023/09/14 05:18:22;;;;;;;6.77;5.63;;;11.30;99.90;;;;;;5051540;28;20192;-62
2023/09/14 05:20:51;;;;;;;11.47;6.30;;;11.40;99.90;;;;;;5051291;28;20195;-62
2023/09/14 05:23:19;;;;;;;9.50;6.00;;;11.40;99.90;;;;;;5051330;28;20224;-63
2023/09/14 05:25:47;;;;;;;12.10;5.83;;;11.50;99.90;;;;;;5049452;28;20615;-63
2023/09/14 05:28:16;;;;;;;7.77;6.23;;;11.50;99.90;;;;;;5046150;28;20245;-63
2023/09/14 05:30:46;;;;;;;7.50;6.30;;;11.50;99.90;;;;;;5050783;28;20232;-63
2023/09/14 05:33:14;;;;;;;11.47;6.97;;;11.50;99.90;;;;;;5049874;28;20738;-63
2023/09/14 05:35:43;;;;;;;10.57;6.83;;;11.50;99.90;;;;;;5057815;28;20663;-63
2023/09/14 05:38:12;;;;;;;13.20;6.40;;;11.50;99.90;;;;;;5047927;28;20216;-64
2023/09/14 05:40:41;;;;;;;7.70;6.37;;;11.50;99.90;;;;;;5044649;28;20313;-64
2023/09/14 05:43:09;;;;;;;9.73;4.70;;;11.50;99.90;;;;;;5047065;28;20235;-63
2023/09/14 05:45:37;;;;;;;7.63;5.20;;;11.60;99.90;;;;;;5052647;28;20240;-63
2023/09/14 05:48:07;;;;;;;5.87;5.27;;;11.60;99.90;;;;;;5051566;28;20213;-64
2023/09/14 05:50:36;;;;;;;9.67;5.60;;;11.60;99.90;;;;;;5052849;28;20205;-64
2023/09/14 05:53:05;;;;;;;7.73;5.67;;;11.60;99.90;;;;;;5049227;28;20225;-63
2023/09/14 05:55:33;;;;;;;8.60;5.67;;;11.60;99.90;;;;;;5047937;28;20224;-63
2023/09/14 05:58:02;;;;;;;12.13;6.50;;;11.70;99.90;;;;;;5051764;28;20228;-64
2023/09/14 06:00:30;;;;;;;13.37;6.50;;;11.70;99.90;;;;;;5049097;28;20234;-64
2023/09/14 06:02:59;;;;;;;9.53;6.90;;;11.70;99.90;;;;;;5047953;28;20201;-63
2023/09/14 06:05:29;;;;;;;10.63;6.37;;;11.80;99.90;;;;;;5054942;28;20232;-63
2023/09/14 06:07:57;;;;;;;16.00;8.17;;;11.90;99.90;;;;;;5048440;28;20229;-63
2023/09/14 06:10:26;;;;;;;18.40;9.20;;;11.90;99.90;;;;;;5051378;28;20231;-63
2023/09/14 06:12:54;;;;;;;16.40;8.90;;;11.90;99.90;;;;;;5046167;28;20223;-63
2023/09/14 06:15:23;;;;;;;10.70;8.10;;;11.90;99.90;;;;;;5051346;28;20232;-63
2023/09/14 06:17:51;;;;;;;12.23;8.17;;;11.90;99.90;;;;;;5053701;28;20575;-63
2023/09/14 06:20:21;;;;;;;11.93;8.07;;;11.90;99.90;;;;;;5047852;28;20545;-63
2023/09/14 06:22:50;;;;;;;14.13;8.77;;;12.00;99.90;;;;;;5057414;28;20244;-63
2023/09/14 06:25:20;;;;;;;11.37;8.43;;;12.00;99.90;;;;;;5057598;28;20221;-63
2023/09/14 06:27:48;;;;;;;12.60;7.87;;;12.10;99.90;;;;;;5059705;28;20225;-63
2023/09/14 06:30:17;;;;;;;19.20;9.23;;;12.10;99.90;;;;;;5061464;28;20209;-63
2023/09/14 06:32:45;;;;;;;14.03;8.80;;;12.20;99.90;;;;;;5059452;28;20258;-63
2023/09/14 06:35:13;;;;;;;15.07;8.20;;;12.40;99.90;;;;;;5056515;28;20665;-64
2023/09/14 06:37:42;;;;;;;13.27;7.80;;;12.50;99.90;;;;;;5058667;28;20260;-63
2023/09/14 06:40:14;;;;;;;15.50;7.60;;;12.70;99.90;;;;;;5059930;28;20229;-63
2023/09/14 06:42:43;;;;;;;11.70;7.43;;;12.90;99.90;;;;;;5059161;28;20227;-64
2023/09/14 06:45:11;;;;;;;16.10;7.60;;;13.20;99.90;;;;;;5053184;28;20194;-63
2023/09/14 06:47:39;;;;;;;17.63;8.07;;;13.50;99.90;;;;;;5059218;28;20189;-63
2023/09/14 06:50:08;;;;;;;11.00;7.20;;;13.80;99.90;;;;;;5055015;28;20757;-64
2023/09/14 06:52:37;;;;;;;11.57;6.80;;;14.00;99.90;;;;;;5058500;28;20292;-64
2023/09/14 06:55:06;;;;;;;7.90;6.70;;;14.20;99.90;;;;;;5059518;28;20217;-63
2023/09/14 06:57:36;;;;;;;14.73;6.83;;;14.40;99.90;;;;;;5057060;28;20237;-63
2023/09/14 07:00:15;;;;;;;9.67;7.00;;;14.60;99.90;;;;;;5059309;28;20204;-63
2023/09/14 07:02:44;;;;;;;11.67;7.53;;;14.80;99.90;;;;;;5054353;28;20205;-64
2023/09/14 07:05:13;;;;;;;12.23;7.00;;;15.10;99.90;;;;;;5051280;28;20228;-64
2023/09/14 07:07:42;;;;;;;11.27;6.47;;;15.30;99.90;;;;;;5056055;28;20223;-63
2023/09/14 07:10:11;;;;;;;8.90;6.63;;;15.60;99.90;;;;;;5056780;28;20646;-64
2023/09/14 07:12:40;;;;;;;12.97;6.77;;;15.80;99.90;;;;;;5048797;28;20292;-64
2023/09/14 07:15:10;;;;;;;13.43;7.37;;;15.90;99.90;;;;;;5057783;28;20225;-64
2023/09/14 07:17:39;;;;;;;10.50;6.50;;;16.00;99.90;;;;;;5058830;28;20570;-64
2023/09/14 07:20:09;;;;;;;11.13;7.50;;;16.20;99.90;;;;;;5060994;28;20546;-64
2023/09/14 07:22:38;;;;;;;13.03;7.07;;;16.30;99.90;;;;;;5054062;28;20654;-64
2023/09/14 07:25:08;;;;;;;13.13;7.30;;;16.40;99.90;;;;;;5059090;28;20221;-64
2023/09/14 07:27:37;;;;;;;16.67;7.80;;;16.50;99.90;;;;;;5056103;28;20482;-63
2023/09/14 07:30:08;;;;;;;11.07;7.30;;;16.60;99.90;;;;;;5043415;28;20212;-64
2023/09/14 07:32:36;;;;;;;10.10;7.20;;;16.70;99.90;;;;;;5059673;28;20207;-64
2023/09/14 07:35:06;;;;;;;10.60;7.03;;;16.80;99.90;;;;;;5060904;28;20226;-63
2023/09/14 07:37:34;;;;;;;20.57;7.30;;;16.90;99.90;;;;;;5055958;28;20232;-63
2023/09/14 07:40:03;;;;;;;13.43;7.33;;;17.10;99.90;;;;;;5058044;28;20228;-64
2023/09/14 07:42:31;;;;;;;14.40;7.43;;;17.20;99.90;;;;;;5056766;28;21256;-64
2023/09/14 07:45:00;;;;;;;13.67;7.70;;;17.30;99.90;;;;;;5055698;28;20188;-61
2023/09/14 07:47:30;;;;;;;13.13;8.27;;;17.40;99.90;;;;;;5060403;28;20555;-62
2023/09/14 07:49:58;;;;;;;14.73;7.57;;;17.50;99.90;;;;;;5050513;28;20220;-64
2023/09/14 07:52:28;;;;;;;12.57;7.97;;;17.60;99.90;;;;;;5054364;28;20266;-64
2023/09/14 07:54:56;;;;;;;13.77;7.80;;;17.80;99.90;;;;;;5050598;28;20290;-64
2023/09/14 07:57:24;;;;;;;13.63;8.30;;;18.00;99.90;;;;;;5055820;28;20228;-64
2023/09/14 07:59:53;;;;;;;20.67;8.80;;;18.20;99.90;;;;;;5058512;28;20197;-64
2023/09/14 08:02:21;;;;;;;11.53;7.40;;;18.40;99.90;;;;;;5055995;28;20362;-61
2023/09/14 08:04:52;;;;;;;13.70;7.90;;;18.50;99.90;;;;;;5056942;28;20224;-64
2023/09/14 08:07:21;;;;;;;15.53;8.00;;;18.60;99.90;;;;;;5057199;28;20637;-64
2023/09/14 08:09:52;;;;;;;14.63;8.30;;;18.80;99.90;;;;;;5060922;28;20236;-64
2023/09/14 08:12:20;;;;;;;14.60;7.63;;;18.80;99.90;;;;;;5056708;28;20677;-64
2023/09/14 08:14:49;;;;;;;13.30;7.67;;;18.80;99.90;;;;;;5062253;28;20231;-64
2023/09/14 08:17:17;;;;;;;13.57;7.87;;;19.00;99.90;;;;;;5061282;28;20227;-64
2023/09/14 08:19:45;;;;;;;15.00;7.30;;;19.30;99.90;;;;;;5055399;28;20248;-65
2023/09/14 08:22:20;;;;;;;13.00;7.00;;;19.50;99.90;;;;;;5059327;28;20326;-64
2023/09/14 08:24:48;;;;;;;14.93;7.67;;;19.50;99.90;;;;;;5053940;28;20809;-64
2023/09/14 08:27:17;;;;;;;13.23;7.03;;;19.80;99.90;;;;;;5062264;28;20207;-65
2023/09/14 08:29:45;;;;;;;13.77;7.30;;;19.90;99.90;;;;;;5059932;28;20323;-64
2023/09/14 08:32:14;;;;;;;10.83;7.17;;;20.00;99.90;;;;;;5056643;28;20594;-65
2023/09/14 08:34:43;;;;;;;9.73;6.50;;;20.10;99.90;;;;;;5054598;28;20239;-64
2023/09/14 08:37:11;;;;;;;7.57;6.70;;;20.20;99.90;;;;;;5057701;28;20216;-64
2023/09/14 08:39:41;;;;;;;10.37;6.70;;;20.20;99.90;;;;;;5056962;28;20222;-64
2023/09/14 08:42:10;;;;;;;9.47;7.00;;;20.30;99.90;;;;;;5057168;28;20274;-64
2023/09/14 08:44:40;;;;;;;9.70;6.80;;;20.40;99.90;;;;;;5056689;28;20192;-65
2023/09/14 08:47:10;;;;;;;8.93;6.23;;;20.50;99.90;;;;;;5058645;28;20224;-65
2023/09/14 08:49:39;;;;;;;10.13;6.20;;;20.70;99.90;;;;;;5060043;28;20277;-64
2023/09/14 08:52:08;;;;;;;8.77;6.03;;;20.80;99.90;;;;;;5055682;28;20705;-65
2023/09/14 08:54:37;;;;;;;9.97;6.30;;;20.80;99.90;;;;;;5054166;28;20328;-65
2023/09/14 08:57:08;;;;;;;9.87;6.33;;;20.80;99.90;;;;;;5057080;28;20189;-64
2023/09/14 08:59:38;;;;;;;9.23;5.27;;;20.80;99.90;;;;;;5057789;28;20193;-64
2023/09/14 09:02:11;;;;;;;7.97;5.37;;;20.80;99.90;;;;;;5055230;28;20232;-65
2023/09/14 09:04:40;;;;;;;9.90;5.53;;;20.90;99.90;;;;;;5057811;28;20220;-64
2023/09/14 09:07:10;;;;;;;4.90;4.47;;;20.80;99.90;;;;;;5057667;28;20416;-64
2023/09/14 09:09:38;;;;;;;5.90;5.30;;;21.00;99.90;;;;;;5055711;28;20224;-62
2023/09/14 09:12:08;;;;;;;8.70;4.47;;;21.10;99.90;;;;;;5060123;28;20196;-62
2023/09/14 09:14:38;;;;;;;4.37;3.60;;;21.20;99.90;;;;;;5055610;28;20606;-62
2023/09/14 09:17:06;;;;;;;6.90;4.50;;;21.20;99.90;;;;;;5056848;28;20234;-63
2023/09/14 09:19:47;;;;;;;5.87;4.40;;;21.20;99.90;;;;;;5059809;28;20566;-62
2023/09/14 09:22:16;;;;;;;4.83;4.40;;;21.20;99.90;;;;;;5043474;28;20225;-63
2023/09/14 09:24:44;;;;;;;7.00;4.23;;;21.30;99.90;;;;;;5056778;28;20739;-63
2023/09/14 09:27:26;;;;;;;4.90;4.07;;;21.30;99.90;;;;;;5058458;28;20621;-63
2023/09/14 09:29:58;;;;;;;4.60;4.20;;;21.40;99.90;;;;;;5058172;28;20190;-63
2023/09/14 09:32:27;;;;;;;6.23;4.13;;;21.50;99.90;;;;;;5051972;28;20221;-63
2023/09/14 09:34:56;;;;;;;4.20;3.33;;;21.40;99.90;;;;;;5059670;28;20631;-63
2023/09/14 09:37:25;;;;;;;5.37;3.67;;;21.40;99.90;;;;;;5056613;28;20723;-63
2023/09/14 09:39:55;;;;;;;4.93;3.33;;;21.50;99.90;;;;;;5057548;28;20229;-63
2023/09/14 09:42:24;;;;;;;5.40;4.90;;;21.50;99.90;;;;;;5052006;28;20654;-63
2023/09/14 09:44:59;;;;;;;4.00;3.60;;;21.60;99.90;;;;;;5055967;28;20294;-63
2023/09/14 09:47:28;;;;;;;4.27;3.87;;;21.70;99.90;;;;;;5036033;28;20703;-62
2023/09/14 09:49:57;;;;;;;3.70;3.50;;;21.70;99.90;;;;;;5053427;28;20232;-63
2023/09/14 09:52:27;;;;;;;4.43;3.90;;;21.90;99.90;;;;;;5056864;28;20729;-63
2023/09/14 09:54:55;;;;;;;4.43;3.43;;;21.90;99.90;;;;;;5060397;28;20684;-63
2023/09/14 09:57:29;;;;;;;7.87;4.40;;;21.80;99.90;;;;;;5061998;28;20218;-63
2023/09/14 09:59:59;;;;;;;9.53;4.60;;;21.80;99.90;;;;;;5058406;28;20198;-63
2023/09/14 10:02:31;;;;;;;6.90;4.77;;;22.10;99.90;;;;;;5023858;28;20596;-63
2023/09/14 10:04:59;;;;;;;7.00;4.30;;;22.10;99.90;;;;;;5047559;28;20296;-63
2023/09/14 10:07:28;;;;;;;4.83;4.23;;;22.10;99.90;;;;;;5062998;28;20276;-63
2023/09/14 10:09:57;;;;;;;4.53;4.13;;;22.40;99.90;;;;;;5061839;28;20720;-63
2023/09/14 10:12:27;;;;;;;6.30;4.80;;;22.40;99.90;;;;;;5049393;28;20219;-63
2023/09/14 10:14:59;;;;;;;6.23;4.20;;;22.40;99.90;;;;;;5054073;28;20225;-63
2023/09/14 10:17:32;;;;;;;5.80;3.63;;;22.70;99.90;;;;;;5057665;28;20266;-63
2023/09/14 10:20:05;;;;;;;6.20;3.83;;;22.70;99.90;;;;;;5051710;28;20247;-63
2023/09/14 10:22:35;;;;;;;6.00;4.20;;;22.90;99.90;;;;;;5058808;28;20270;-63
2023/09/14 10:25:06;;;;;;;8.67;4.10;;;23.00;99.90;;;;;;5061112;28;20273;-63
2023/09/14 10:27:35;;;;;;;4.90;3.87;;;22.90;99.90;;;;;;5055895;28;20229;-63
2023/09/14 10:30:05;;;;;;;5.60;4.23;;;22.90;99.90;;;;;;5062249;28;20765;-63
2023/09/14 10:32:37;;;;;;;5.67;3.90;;;23.10;99.90;;;;;;5058341;28;20216;-63
2023/09/14 10:35:06;;;;;;;7.63;4.97;;;23.20;99.90;;;;;;5038190;28;20249;-63
2023/09/14 10:37:36;;;;;;;5.47;3.80;;;23.40;99.90;;;;;;5041031;28;20216;-63
2023/09/14 10:40:05;;;;;;;5.47;3.83;;;23.60;99.90;;;;;;5039307;28;20679;-64
2023/09/14 10:42:33;;;;;;;10.50;4.27;;;23.60;99.90;;;;;;5038523;28;20298;-63
2023/09/14 10:45:02;;;;;;;5.10;3.67;;;23.70;99.90;;;;;;5037113;28;20197;-63
2023/09/14 10:47:37;;;;;;;5.10;3.95;;;23.80;99.90;;;;;;5060289;28;20217;-63
2023/09/14 10:50:10;;;;;;;6.27;3.70;;;23.90;99.90;;;;;;5061100;28;20866;-63
2023/09/14 10:52:40;;;;;;;7.15;3.83;;;24.00;99.90;;;;;;5054226;28;20230;-63
2023/09/14 10:55:10;;;;;;;4.53;4.18;;;24.00;99.90;;;;;;5061710;28;20324;-63
2023/09/14 10:57:40;;;;;;;5.60;4.22;;;24.20;99.90;;;;;;5058906;28;20232;-64
2023/09/14 11:00:30;;;;;;;6.15;4.00;;;24.30;99.90;;;;;;5057659;28;20198;-63
2023/09/14 11:03:20;;;;;;;5.30;3.75;;;24.20;99.90;;;;;;5053301;28;20298;-63
2023/09/14 11:05:54;;;;;;;4.32;3.40;;;24.30;99.90;;;;;;5056682;28;20181;-63
2023/09/14 11:08:28;;;;;;;3.55;3.25;;;24.50;99.90;;;;;;5056498;28;20219;-63
2023/09/14 11:11:00;;;;;;;3.45;3.17;;;24.50;99.90;;;;;;5049323;28;20238;-63
2023/09/14 11:13:33;;;;;;;5.97;3.53;;;24.40;99.90;;;;;;5051827;28;20225;-63
2023/09/14 11:16:13;;;;;;;3.67;3.38;;;24.30;99.90;;;;;;5060748;28;20684;-63
2023/09/14 11:18:56;;;;;;;4.82;3.03;;;24.40;99.90;;;;;;5059737;28;20231;-63
2023/09/14 11:21:44;;;;;;;3.03;2.50;;;24.60;99.90;;;;;;5057922;28;20228;-63
2023/09/14 11:24:16;;;;;;;6.85;3.45;;;25.00;99.90;;;;;;5056233;28;20214;-64
2023/09/14 11:26:49;;;;;;;5.85;2.63;;;25.00;99.90;;;;;;5060961;28;20202;-63
2023/09/14 11:29:26;;;;;;;3.20;3.00;;;25.20;99.90;;;;;;5055540;28;20714;-64
2023/09/14 11:31:59;;;;;;;5.22;2.80;;;25.40;99.90;;;;;;5059015;28;20235;-64
2023/09/14 11:34:37;;;;;;;7.20;2.97;;;25.70;99.90;;;;;;5059016;28;20218;-64
2023/09/14 11:37:15;;;;;;;2.42;2.30;;;25.60;99.90;;;;;;5057671;28;20229;-64
2023/09/14 11:39:56;;;;;;;2.53;2.33;;;25.70;99.90;;;;;;5059837;28;20222;-64
2023/09/14 11:43:01;;;;;;;2.92;2.65;;;25.70;99.90;;;;;;5056677;28;20229;-64
2023/09/14 11:45:36;;;;;;;1.75;1.65;;;25.70;99.90;;;;;;5056655;28;20219;-63
2023/09/14 11:48:10;;;;;;;2.33;2.17;;;25.70;99.90;;;;;;5057690;28;20207;-64
2023/09/14 11:51:02;;;;;;;2.88;2.63;;;25.70;99.90;;;;;;5052208;28;20213;-64
2023/09/14 11:53:36;;;;;;;2.75;2.53;;;25.70;99.90;;;;;;5056993;28;20222;-64
2023/09/14 11:56:04;;;;;;;4.35;2.50;;;25.70;99.90;;;;;;5058419;28;20553;-64
2023/09/14 11:58:36;;;;;;;3.05;2.40;;;25.80;99.90;;;;;;5056789;28;20213;-64
2023/09/14 12:01:04;;;;;;;2.80;2.50;;;25.90;99.90;;;;;;5059711;28;20230;-63
2023/09/14 12:03:33;;;;;;;3.53;2.25;;;26.10;99.90;;;;;;5059499;28;20658;-63
2023/09/14 12:06:03;;;;;;;2.67;2.15;;;26.10;99.90;;;;;;5059811;28;20201;-64
2023/09/14 12:08:36;;;;;;;3.97;2.22;;;26.40;99.90;;;;;;5055356;28;20256;-64
2023/09/14 12:11:05;;;;;;;3.70;2.40;;;26.70;99.90;;;;;;5054937;28;20226;-64
2023/09/14 12:13:33;;;;;;;2.30;2.10;;;26.80;99.90;;;;;;5056283;28;20996;-64
2023/09/14 12:16:04;;;;;;;2.72;2.00;;;26.70;99.90;;;;;;5057647;28;20234;-63
2023/09/14 12:18:40;;;;;;;2.22;2.05;;;26.40;99.90;;;;;;5057478;28;20624;-63
2023/09/14 12:21:11;;;;;;;2.08;1.77;;;25.80;99.90;;;;;;5059964;28;20227;-63
2023/09/14 12:23:44;;;;;;;4.90;2.15;;;25.40;99.90;;;;;;5059633;28;20195;-63
2023/09/14 12:26:15;;;;;;;2.30;2.10;;;25.10;99.90;;;;;;5053384;28;21717;-63
2023/09/14 12:28:47;;;;;;;2.00;1.77;;;25.00;99.90;;;;;;5059928;28;20328;-63
2023/09/14 12:31:17;;;;;;;2.93;1.80;;;24.90;99.90;;;;;;5054010;28;20225;-64
2023/09/14 12:33:46;;;;;;;2.10;1.90;;;25.10;99.90;;;;;;5058950;28;20238;-63
2023/09/14 12:36:18;;;;;;;8.93;2.23;;;25.00;99.90;;;;;;5058600;28;20773;-63
2023/09/14 12:38:49;;;;;;;2.83;1.73;;;24.70;99.90;;;;;;5058488;28;20246;-63
2023/09/14 12:41:18;;;;;;;1.80;1.70;;;24.60;99.90;;;;;;5055598;28;20235;-63
2023/09/14 12:43:46;;;;;;;1.80;1.70;;;24.40;99.90;;;;;;5060205;28;20224;-63
2023/09/14 12:46:15;;;;;;;3.87;1.70;;;24.10;99.90;;;;;;5054838;28;20216;-62
2023/09/14 12:48:44;;;;;;;1.60;1.50;;;23.90;99.90;;;;;;5056346;28;20278;-63
2023/09/14 12:51:16;;;;;;;2.07;1.73;;;24.00;99.90;;;;;;5055983;28;20193;-63
2023/09/14 12:53:45;;;;;;;1.87;1.50;;;24.10;99.90;;;;;;5062415;28;20218;-63
2023/09/14 12:56:15;;;;;;;2.37;1.83;;;24.10;99.90;;;;;;5057468;28;20219;-64
2023/09/14 12:58:43;;;;;;;4.60;2.00;;;24.20;99.90;;;;;;5056914;28;20232;-63
2023/09/14 13:01:13;;;;;;;1.60;1.50;;;24.50;99.90;;;;;;5059304;28;20235;-63